Terminal Aerodrome Forecast
Issued by NWS

Home | Current Version | Previous Version | Graphics & Text | Print | Product List | Glossary On
Versions: 1 2 3 4 5 6 7 8 9 10 11 12 13 14 15 16
000
FTUS45 KGGW 171720
TAFSDY
TAF
KSDY 171720Z 1718/1818 27018G28KT P6SM FEW100
     FM180000 27007KT P6SM SCT100
     FM181600 08005KT P6SM BKN100=

USA.gov is the U.S. government's official web portal to all federal, state and local government web resources and services.